National Weather Service Raw Text Product

Displaying AFOS PIL: TAFALO Received: 2018-04-17 11:42 UTC


627 
FTUS43 KDMX 171142
TAFALO
TAF
KALO 171142Z 1712/1812 31007KT P6SM SCT035
     FM171400 35006KT P6SM SKC
     FM172100 04007KT P6SM FEW180
     FM180500 08009KT P6SM BKN150
     FM180800 08014G20KT P6SM BKN090
     FM180900 08015G21KT P6SM -FZRA BKN070=